createdAt,value
2023-04-22T00:01:15.489Z,11.73
2023-04-22T00:03:44.757Z,11.40
2023-04-22T00:06:14.942Z,11.77
2023-04-22T00:08:43.322Z,11.60
2023-04-22T00:11:11.994Z,11.60
2023-04-22T00:13:40.525Z,12.30
2023-04-22T00:16:09.483Z,11.80
2023-04-22T00:18:37.969Z,11.53
2023-04-22T00:21:07.637Z,11.90
2023-04-22T00:23:37.415Z,11.23
2023-04-22T00:26:05.895Z,12.40
2023-04-22T00:28:34.583Z,11.83
2023-04-22T00:31:04.805Z,11.50
2023-04-22T00:33:33.379Z,11.90
2023-04-22T00:36:02.039Z,11.30
2023-04-22T00:38:30.467Z,11.27
2023-04-22T00:41:01.157Z,11.70
2023-04-22T00:43:29.506Z,11.80
2023-04-22T00:45:58.866Z,11.80
2023-04-22T00:48:28.896Z,11.10
2023-04-22T00:50:57.513Z,11.63
2023-04-22T00:53:25.867Z,11.67
2023-04-22T00:55:54.484Z,11.93
2023-04-22T00:58:27.087Z,11.50
2023-04-22T01:00:55.829Z,11.93
2023-04-22T01:03:25.224Z,11.27
2023-04-22T01:05:53.844Z,11.80
2023-04-22T01:08:22.382Z,11.47
2023-04-22T01:10:50.861Z,10.77
2023-04-22T01:13:19.216Z,11.43
2023-04-22T01:15:49.728Z,11.43
2023-04-22T01:18:18.840Z,10.83
2023-04-22T01:20:47.325Z,11.33
2023-04-22T01:23:20.433Z,10.97
2023-04-22T01:25:49.935Z,11.33
2023-04-22T01:28:19.351Z,12.03
2023-04-22T01:30:50.453Z,11.20
2023-04-22T01:33:19.986Z,11.40
2023-04-22T01:35:48.836Z,11.63
2023-04-22T01:38:18.967Z,11.40
2023-04-22T01:40:47.789Z,11.33
2023-04-22T01:43:16.126Z,11.40
2023-04-22T01:45:44.587Z,11.53
2023-04-22T01:48:13.070Z,11.10
2023-04-22T01:50:41.515Z,11.83
2023-04-22T01:53:10.916Z,13.80
2023-04-22T01:55:41.026Z,11.60
2023-04-22T01:58:09.414Z,11.20
2023-04-22T02:00:37.991Z,11.33
2023-04-22T02:03:06.651Z,11.73
2023-04-22T02:05:35.106Z,12.17
2023-04-22T02:08:03.412Z,11.13
2023-04-22T02:10:32.068Z,11.40
2023-04-22T02:13:01.798Z,11.60
2023-04-22T02:15:30.616Z,12.37
2023-04-22T02:18:00.110Z,11.87
2023-04-22T02:20:28.683Z,12.17
2023-04-22T02:22:57.344Z,11.37
2023-04-22T02:25:27.116Z,11.40
2023-04-22T02:27:55.769Z,11.90
2023-04-22T02:30:26.352Z,13.03
2023-04-22T02:32:56.230Z,11.93
2023-04-22T02:35:25.098Z,12.17
2023-04-22T02:37:54.348Z,11.27
2023-04-22T02:40:25.630Z,11.80
2023-04-22T02:42:54.355Z,11.83
2023-04-22T02:45:25.766Z,11.03
2023-04-22T02:47:54.764Z,12.10
2023-04-22T02:50:23.471Z,11.13
2023-04-22T02:52:52.067Z,11.90
2023-04-22T02:55:22.034Z,12.17
2023-04-22T02:57:50.755Z,12.00
2023-04-22T03:00:19.397Z,11.50
2023-04-22T03:02:49.732Z,11.17
2023-04-22T03:05:20.535Z,11.70
2023-04-22T03:07:49.406Z,11.77
2023-04-22T03:10:18.522Z,11.63
2023-04-22T03:12:46.931Z,11.70
2023-04-22T03:15:16.186Z,12.13
2023-04-22T03:17:45.875Z,11.67
2023-04-22T03:20:17.481Z,11.40
2023-04-22T03:22:45.874Z,11.60
2023-04-22T03:25:16.132Z,11.50
2023-04-22T03:27:50.728Z,12.17
2023-04-22T03:30:19.757Z,12.03
2023-04-22T03:32:49.194Z,12.00
2023-04-22T03:35:25.235Z,11.63
2023-04-22T03:37:55.148Z,12.30
2023-04-22T03:40:29.047Z,12.27
2023-04-22T03:42:57.838Z,11.87
2023-04-22T03:45:26.800Z,12.13
2023-04-22T03:48:12.598Z,12.67
2023-04-22T03:50:47.603Z,12.33
2023-04-22T03:53:16.726Z,12.20
2023-04-22T03:55:45.955Z,11.90
2023-04-22T03:58:16.012Z,12.83
2023-04-22T04:00:44.661Z,11.77
2023-04-22T04:03:17.306Z,12.20
2023-04-22T04:05:50.483Z,12.03
2023-04-22T04:08:18.975Z,12.63
2023-04-22T04:10:47.318Z,13.17
2023-04-22T04:13:16.952Z,12.50
2023-04-22T04:15:58.498Z,12.00
2023-04-22T04:18:29.642Z,12.17
2023-04-22T04:20:59.724Z,15.77
2023-04-22T04:23:30.896Z,12.57
2023-04-22T04:26:01.278Z,12.70
2023-04-22T04:28:32.393Z,14.23
2023-04-22T04:31:02.755Z,13.70
2023-04-22T04:33:32.612Z,13.60
2023-04-22T04:36:03.114Z,13.63
2023-04-22T04:38:34.788Z,12.77
2023-04-22T04:41:04.591Z,14.20
2023-04-22T04:43:41.529Z,13.40
2023-04-22T04:46:35.026Z,17.30
2023-04-22T04:49:04.228Z,12.53
2023-04-22T04:51:39.055Z,12.97
2023-04-22T04:54:07.962Z,13.80
2023-04-22T04:56:41.858Z,14.00
2023-04-22T04:59:13.158Z,12.60
2023-04-22T05:01:42.398Z,12.13
2023-04-22T05:04:13.849Z,12.57
2023-04-22T05:06:46.134Z,12.40
2023-04-22T05:09:15.614Z,12.67
2023-04-22T05:11:46.027Z,13.83
2023-04-22T05:14:20.273Z,16.53
2023-04-22T05:16:50.549Z,11.80
2023-04-22T05:19:20.261Z,12.10
2023-04-22T05:21:51.146Z,11.83
2023-04-22T05:24:20.377Z,12.10
2023-04-22T05:26:49.838Z,12.67
2023-04-22T05:29:20.834Z,12.17
2023-04-22T05:31:49.371Z,12.50
2023-04-22T05:34:18.157Z,11.90
2023-04-22T05:36:46.735Z,11.70
2023-04-22T05:39:17.079Z,11.37
2023-04-22T05:41:46.978Z,11.70
2023-04-22T05:44:17.590Z,11.30
2023-04-22T05:46:46.185Z,11.23
2023-04-22T05:49:14.950Z,12.57
2023-04-22T05:52:02.102Z,11.57
2023-04-22T05:54:40.652Z,11.70
2023-04-22T05:57:10.159Z,11.97
2023-04-22T05:59:38.989Z,18.27
2023-04-22T06:02:07.852Z,12.60
2023-04-22T06:04:37.805Z,11.70
2023-04-22T06:07:07.398Z,11.50
2023-04-22T06:09:36.193Z,11.53
2023-04-22T06:12:06.701Z,12.30
2023-04-22T06:14:35.305Z,11.67
2023-04-22T06:17:03.803Z,11.73
2023-04-22T06:19:32.244Z,11.50
2023-04-22T06:22:00.630Z,11.33
2023-04-22T06:24:29.023Z,11.87
2023-04-22T06:26:58.238Z,11.97
2023-04-22T06:29:30.065Z,11.50
2023-04-22T06:31:58.697Z,12.07
2023-04-22T06:34:27.204Z,11.50
2023-04-22T06:36:55.835Z,11.80
2023-04-22T06:39:24.262Z,11.60
2023-04-22T06:42:31.737Z,11.57
2023-04-22T06:45:24.434Z,16.73
2023-04-22T06:48:18.399Z,11.50
2023-04-22T06:51:06.884Z,15.30
2023-04-22T06:53:35.375Z,11.17
2023-04-22T06:56:03.789Z,10.90
2023-04-22T06:58:32.354Z,12.93
2023-04-22T07:01:02.293Z,11.67
2023-04-22T07:03:30.888Z,11.80
2023-04-22T07:06:06.482Z,11.70
2023-04-22T07:08:35.535Z,13.63
2023-04-22T07:11:04.001Z,11.37
2023-04-22T07:13:38.241Z,11.50
2023-04-22T07:16:08.222Z,11.37
2023-04-22T07:18:36.966Z,13.80
2023-04-22T07:21:05.670Z,12.00
2023-04-22T07:23:34.076Z,13.90
2023-04-22T07:26:03.585Z,33.53
2023-04-22T07:28:32.443Z,70.53
2023-04-22T07:31:00.739Z,42.63
2023-04-22T07:33:30.483Z,31.33
2023-04-22T07:35:58.864Z,22.50
2023-04-22T07:38:27.736Z,19.50
2023-04-22T07:40:56.090Z,14.47
2023-04-22T07:43:24.516Z,14.13
2023-04-22T07:45:52.876Z,13.20
2023-04-22T07:48:21.226Z,12.20
2023-04-22T07:50:51.105Z,11.70
2023-04-22T07:53:20.734Z,11.67
2023-04-22T07:55:49.859Z,11.33
2023-04-22T07:58:18.518Z,12.03
2023-04-22T08:00:46.967Z,10.90
2023-04-22T08:03:15.615Z,11.33
2023-04-22T08:05:44.146Z,11.33
2023-04-22T08:08:14.073Z,12.97
2023-04-22T08:10:42.738Z,11.97
2023-04-22T08:13:11.853Z,11.37
2023-04-22T08:15:40.830Z,10.83
2023-04-22T08:18:09.572Z,13.10
2023-04-22T08:20:38.395Z,14.70
2023-04-22T08:23:07.130Z,12.67
2023-04-22T08:25:38.105Z,11.47
2023-04-22T08:28:06.876Z,11.27
2023-04-22T08:30:35.391Z,11.20
2023-04-22T08:33:04.138Z,14.93
2023-04-22T08:35:32.889Z,12.67
2023-04-22T08:38:01.212Z,14.80
2023-04-22T08:40:29.804Z,10.90
2023-04-22T08:42:59.730Z,11.70
2023-04-22T08:45:28.234Z,11.40
2023-04-22T08:47:58.264Z,10.10
2023-04-22T08:50:27.278Z,11.10
2023-04-22T08:52:55.685Z,12.40
2023-04-22T08:55:24.080Z,11.00
2023-04-22T08:57:53.049Z,10.93
2023-04-22T09:00:22.935Z,12.33
2023-04-22T09:02:53.037Z,11.30
2023-04-22T09:05:26.679Z,11.17
2023-04-22T09:07:59.844Z,10.63
2023-04-22T09:10:28.504Z,11.53
2023-04-22T09:12:58.035Z,10.83
2023-04-22T09:15:27.825Z,10.80
2023-04-22T09:17:56.863Z,11.10
2023-04-22T09:20:28.478Z,11.20
2023-04-22T09:22:58.720Z,12.07
2023-04-22T09:25:28.750Z,12.40
2023-04-22T09:27:59.477Z,24.03
2023-04-22T09:30:31.572Z,23.97
2023-04-22T09:33:02.816Z,24.83
2023-04-22T09:35:34.697Z,20.50
2023-04-22T09:38:06.344Z,19.27
2023-04-22T09:40:35.581Z,14.97
2023-04-22T09:43:06.825Z,12.10
2023-04-22T09:45:39.359Z,12.80
2023-04-22T09:48:10.673Z,19.23
2023-04-22T09:50:41.287Z,10.93
2023-04-22T09:53:13.572Z,11.23
2023-04-22T09:55:44.512Z,16.67
2023-04-22T09:58:15.125Z,11.27
2023-04-22T10:00:48.786Z,10.87
2023-04-22T10:03:17.672Z,12.43
2023-04-22T10:05:46.862Z,28.47
2023-04-22T10:08:17.522Z,74.63
2023-04-22T10:10:46.205Z,77.07
2023-04-22T10:13:14.660Z,54.40
2023-04-22T10:15:49.953Z,36.03
2023-04-22T10:18:23.889Z,23.10
2023-04-22T10:20:52.970Z,17.90
2023-04-22T10:23:24.422Z,16.37
2023-04-22T10:25:57.538Z,14.00
2023-04-22T10:28:29.755Z,11.30
2023-04-22T10:30:59.552Z,11.00
2023-04-22T10:33:39.161Z,10.87
2023-04-22T10:36:10.439Z,10.40
2023-04-22T10:38:40.996Z,12.00
2023-04-22T10:41:15.665Z,14.80
2023-04-22T10:43:49.150Z,10.63
2023-04-22T10:47:03.193Z,10.43
2023-04-22T10:49:33.043Z,13.40
2023-04-22T10:52:04.096Z,10.10
2023-04-22T10:55:01.268Z,10.07
2023-04-22T10:57:40.595Z,10.77
2023-04-22T11:00:52.999Z,9.90
2023-04-22T11:03:29.965Z,10.43
2023-04-22T11:06:19.484Z,17.00
2023-04-22T11:08:49.391Z,10.40
2023-04-22T11:11:19.891Z,9.70
2023-04-22T11:13:50.682Z,9.80
2023-04-22T11:16:22.900Z,10.20
2023-04-22T11:18:53.504Z,9.83
2023-04-22T11:21:22.765Z,10.00
2023-04-22T11:23:53.004Z,9.73
2023-04-22T11:26:36.202Z,10.13
2023-04-22T11:29:05.010Z,9.80
2023-04-22T11:31:33.512Z,9.50
2023-04-22T11:34:03.265Z,9.90
2023-04-22T11:36:32.004Z,9.90
2023-04-22T11:39:00.414Z,9.50
2023-04-22T11:41:30.127Z,9.20
2023-04-22T11:43:58.486Z,9.50
2023-04-22T11:46:31.447Z,10.00
2023-04-22T11:49:15.806Z,9.80
2023-04-22T11:51:55.419Z,9.30
2023-04-22T11:54:34.646Z,9.70
2023-04-22T11:57:05.127Z,9.50
2023-04-22T11:59:33.647Z,9.50
2023-04-22T12:02:02.414Z,9.53
2023-04-22T12:04:38.370Z,9.67
2023-04-22T12:07:07.089Z,9.30
2023-04-22T12:09:35.687Z,9.83
2023-04-22T12:12:05.555Z,9.67
2023-04-22T12:14:34.573Z,12.37
2023-04-22T12:17:05.478Z,24.20
2023-04-22T12:19:35.171Z,27.07
2023-04-22T12:22:03.589Z,22.37
2023-04-22T12:24:32.012Z,14.70
2023-04-22T12:27:00.347Z,12.73
2023-04-22T12:29:31.779Z,11.97
2023-04-22T12:32:00.157Z,10.00
2023-04-22T12:34:28.516Z,9.70
2023-04-22T12:36:58.253Z,9.80
2023-04-22T12:39:26.661Z,12.30
2023-04-22T12:41:55.061Z,11.93
2023-04-22T12:44:25.082Z,11.37
2023-04-22T12:46:53.817Z,12.67
2023-04-22T12:49:22.581Z,17.47
2023-04-22T12:51:51.352Z,13.10
2023-04-22T12:54:21.361Z,13.13
2023-04-22T12:56:50.253Z,13.97
2023-04-22T12:59:18.572Z,17.30
2023-04-22T13:01:46.917Z,23.13
2023-04-22T13:04:15.336Z,82.87
2023-04-22T13:06:44.454Z,48.83
2023-04-22T13:09:13.001Z,33.27
2023-04-22T13:11:42.850Z,22.27
2023-04-22T13:14:11.802Z,19.43
2023-04-22T13:16:40.213Z,13.80
2023-04-22T13:19:08.736Z,12.47
2023-04-22T13:21:37.109Z,11.53
2023-04-22T13:24:05.703Z,11.10
2023-04-22T13:26:34.204Z,10.77
2023-04-22T13:29:03.984Z,11.97
2023-04-22T13:31:32.338Z,10.63
2023-04-22T13:34:00.730Z,15.13
2023-04-22T13:36:29.128Z,10.70
2023-04-22T13:38:58.758Z,10.53
2023-04-22T13:41:27.188Z,14.40
2023-04-22T13:43:56.110Z,9.70
2023-04-22T13:46:26.574Z,9.60
2023-04-22T13:48:56.542Z,10.17
2023-04-22T13:51:24.845Z,10.87
2023-04-22T13:53:53.120Z,9.80
2023-04-22T13:56:21.478Z,10.07
2023-04-22T13:58:49.998Z,10.50
2023-04-22T14:01:18.606Z,10.43
2023-04-22T14:03:50.851Z,9.53
2023-04-22T14:06:19.548Z,9.77
2023-04-22T14:08:48.216Z,9.87
2023-04-22T14:11:16.637Z,9.63
2023-04-22T14:13:46.829Z,9.67
2023-04-22T14:16:16.216Z,12.90
2023-04-22T14:18:45.738Z,9.80
2023-04-22T14:21:15.718Z,10.00
2023-04-22T14:23:44.187Z,9.60
2023-04-22T14:26:14.239Z,9.43
2023-04-22T14:28:43.105Z,9.60
2023-04-22T14:31:11.967Z,9.80
2023-04-22T14:33:40.356Z,9.60
2023-04-22T14:36:09.035Z,10.47
2023-04-22T14:38:38.712Z,9.90
2023-04-22T14:41:07.133Z,9.67
2023-04-22T14:43:36.099Z,9.73
2023-04-22T14:46:04.886Z,9.87
2023-04-22T14:48:35.422Z,9.87
2023-04-22T14:51:03.887Z,9.70
2023-04-22T14:53:32.815Z,10.00
2023-04-22T14:56:02.477Z,10.27
2023-04-22T14:58:31.859Z,9.97
2023-04-22T15:01:01.170Z,9.77
2023-04-22T15:03:29.970Z,9.97
2023-04-22T15:05:59.028Z,9.80
2023-04-22T15:08:27.486Z,10.20
2023-04-22T15:10:55.899Z,10.80
2023-04-22T15:13:25.874Z,10.13
2023-04-22T15:15:54.336Z,9.67
2023-04-22T15:18:22.798Z,9.63
2023-04-22T15:20:51.185Z,12.63
2023-04-22T15:23:19.554Z,9.63
2023-04-22T15:25:48.116Z,10.10
2023-04-22T15:28:16.713Z,10.50
2023-04-22T15:30:47.157Z,9.87
2023-04-22T15:33:15.670Z,10.00
2023-04-22T15:35:46.893Z,10.10
2023-04-22T15:38:15.731Z,10.23
2023-04-22T15:40:44.551Z,10.07
2023-04-22T15:43:14.244Z,9.80
2023-04-22T15:45:42.748Z,10.50
2023-04-22T15:48:12.797Z,9.60
2023-04-22T15:50:41.327Z,9.93
2023-04-22T15:53:10.084Z,10.83
2023-04-22T15:55:38.585Z,9.50
2023-04-22T15:58:06.998Z,9.73
2023-04-22T16:00:35.990Z,9.70
2023-04-22T16:03:05.915Z,9.70
2023-04-22T16:05:37.058Z,9.73
2023-04-22T16:08:06.486Z,10.40
2023-04-22T16:10:36.234Z,9.70
2023-04-22T16:13:06.193Z,9.93
2023-04-22T16:15:39.234Z,9.60
2023-04-22T16:18:08.516Z,10.10
2023-04-22T16:20:39.719Z,9.60
2023-04-22T16:23:10.015Z,9.93
2023-04-22T16:25:39.739Z,11.20
2023-04-22T16:28:11.090Z,9.50
2023-04-22T16:31:07.761Z,9.33
2023-04-22T16:33:46.015Z,9.60
2023-04-22T16:36:16.945Z,9.60
2023-04-22T16:42:11.606Z,9.60
2023-04-22T16:44:42.312Z,9.87
2023-04-22T16:47:12.044Z,9.70
2023-04-22T16:49:41.915Z,9.27
2023-04-22T16:52:13.571Z,9.80
2023-04-22T16:54:43.647Z,9.90
2023-04-22T16:57:13.062Z,13.03
2023-04-22T16:59:42.495Z,9.50
2023-04-22T17:02:12.416Z,9.70
2023-04-22T17:04:42.243Z,9.60
2023-04-22T17:07:13.255Z,9.43
2023-04-22T17:09:42.894Z,9.47
2023-04-22T17:12:12.549Z,9.37
2023-04-22T17:14:42.821Z,9.40
2023-04-22T17:17:12.833Z,9.33
2023-04-22T17:19:43.336Z,9.57
2023-04-22T17:22:14.204Z,9.30
2023-04-22T17:24:43.725Z,9.30
2023-04-22T17:27:15.224Z,9.70
2023-04-22T17:29:44.134Z,9.57
2023-04-22T17:32:13.026Z,9.60
2023-04-22T17:34:41.690Z,9.50
2023-04-22T17:37:10.336Z,9.80
2023-04-22T17:39:41.966Z,9.47
2023-04-22T17:42:10.401Z,10.30
2023-04-22T17:44:39.204Z,9.83
2023-04-22T17:47:08.094Z,9.87
2023-04-22T17:49:36.589Z,9.50
2023-04-22T17:52:05.032Z,9.60
2023-04-22T17:54:33.481Z,10.10
2023-04-22T17:57:03.691Z,9.70
2023-04-22T17:59:32.098Z,9.50
2023-04-22T18:02:01.715Z,9.80
2023-04-22T18:04:30.380Z,9.40
2023-04-22T18:06:59.192Z,12.30
2023-04-22T18:09:28.017Z,10.80
2023-04-22T18:11:58.337Z,10.07
2023-04-22T18:14:28.360Z,10.10
2023-04-22T18:16:57.035Z,9.90
2023-04-22T18:19:25.722Z,9.87
2023-04-22T18:21:59.983Z,10.00
2023-04-22T18:24:30.355Z,10.27
2023-04-22T18:26:59.019Z,13.10
2023-04-22T18:29:28.754Z,10.00
2023-04-22T18:31:57.987Z,10.70
2023-04-22T18:34:26.576Z,9.77
2023-04-22T18:36:54.960Z,10.20
2023-04-22T18:39:23.377Z,10.00
2023-04-22T18:41:52.129Z,9.73
2023-04-22T18:44:21.092Z,10.33
2023-04-22T18:46:52.993Z,10.30
2023-04-22T18:49:21.415Z,10.53
2023-04-22T18:51:49.780Z,11.63
2023-04-22T18:54:18.278Z,12.67
2023-04-22T18:56:46.828Z,10.37
2023-04-22T18:59:15.344Z,10.57
2023-04-22T19:01:44.057Z,12.97
2023-04-22T19:04:14.156Z,10.20
2023-04-22T19:06:42.692Z,10.00
2023-04-22T19:09:11.398Z,10.10
2023-04-22T19:11:40.475Z,11.70
2023-04-22T19:14:09.317Z,11.80
2023-04-22T19:16:37.900Z,10.67
2023-04-22T19:19:06.686Z,10.67
2023-04-22T19:21:36.742Z,12.60
2023-04-22T19:24:05.851Z,11.60
2023-04-22T19:26:34.659Z,11.50
2023-04-22T19:29:03.337Z,11.40
2023-04-22T19:31:32.847Z,11.80
2023-04-22T19:34:02.817Z,11.40
2023-04-22T19:36:31.819Z,11.17
2023-04-22T19:39:01.673Z,11.67
2023-04-22T19:41:30.238Z,11.00
2023-04-22T19:43:59.049Z,11.27
2023-04-22T19:46:27.532Z,11.80
2023-04-22T19:48:56.759Z,11.93
2023-04-22T19:51:25.451Z,16.97
2023-04-22T19:53:55.739Z,11.27
2023-04-22T19:56:26.349Z,11.53
2023-04-22T19:58:55.172Z,11.50
2023-04-22T20:01:24.564Z,11.03
2023-04-22T20:03:53.869Z,11.57
2023-04-22T20:06:23.483Z,11.17
2023-04-22T20:08:54.298Z,10.60
2023-04-22T20:11:25.917Z,10.33
2023-04-22T20:13:56.616Z,10.97
2023-04-22T20:16:27.088Z,10.37
2023-04-22T20:18:55.838Z,10.70
2023-04-22T20:21:24.369Z,12.67
2023-04-22T20:23:55.433Z,24.83
2023-04-22T20:26:24.333Z,23.87
2023-04-22T20:28:54.037Z,18.73
2023-04-22T20:31:24.197Z,19.53
2023-04-22T20:33:53.171Z,27.60
2023-04-22T20:36:22.516Z,21.63
2023-04-22T20:38:52.237Z,20.33
2023-04-22T20:41:21.025Z,19.93
2023-04-22T20:43:49.484Z,18.63
2023-04-22T20:46:18.467Z,16.70
2023-04-22T20:48:49.460Z,15.10
2023-04-22T20:51:17.919Z,14.03
2023-04-22T20:53:46.579Z,13.23
2023-04-22T20:56:15.579Z,12.37
2023-04-22T20:58:44.046Z,13.67
2023-04-22T21:01:16.344Z,11.57
2023-04-22T21:03:53.486Z,11.27
2023-04-22T21:06:22.945Z,11.00
2023-04-22T21:08:52.488Z,11.23
2023-04-22T21:11:21.564Z,11.53
2023-04-22T21:13:51.088Z,11.10
2023-04-22T21:16:21.446Z,11.60
2023-04-22T21:18:55.953Z,10.80
2023-04-22T21:21:27.657Z,10.97
2023-04-22T21:23:56.887Z,10.90
2023-04-22T21:26:26.073Z,10.93
2023-04-22T21:28:59.529Z,11.67
2023-04-22T21:31:29.337Z,11.03
2023-04-22T21:34:00.557Z,10.93
2023-04-22T21:36:29.606Z,11.13
2023-04-22T21:38:58.616Z,10.80
2023-04-22T21:41:27.952Z,10.70
2023-04-22T21:43:57.052Z,10.97
2023-04-22T21:46:26.060Z,11.27
2023-04-22T21:48:54.751Z,10.67
2023-04-22T21:51:25.230Z,11.13
2023-04-22T21:53:54.857Z,11.63
2023-04-22T21:56:24.231Z,13.13
2023-04-22T21:58:52.874Z,10.70
2023-04-22T22:01:21.451Z,11.23
2023-04-22T22:03:50.383Z,11.03
2023-04-22T22:06:19.515Z,10.93
2023-04-22T22:08:50.464Z,11.57
2023-04-22T22:11:30.216Z,11.10
2023-04-22T22:14:01.062Z,11.07
2023-04-22T22:16:31.206Z,10.93
2023-04-22T22:19:02.761Z,12.07
2023-04-22T22:21:33.103Z,10.73
2023-04-22T22:24:03.397Z,11.20
2023-04-22T22:26:32.132Z,12.47
2023-04-22T22:29:00.610Z,10.83
2023-04-22T22:31:30.110Z,10.70
2023-04-22T22:33:59.519Z,11.40
2023-04-22T22:36:29.046Z,11.10
2023-04-22T22:38:58.223Z,11.00
2023-04-22T22:41:28.890Z,11.33
2023-04-22T22:43:58.898Z,12.27
2023-04-22T22:46:28.427Z,11.43
2023-04-22T22:48:59.561Z,10.90
2023-04-22T22:51:30.204Z,10.60
2023-04-22T22:53:59.622Z,11.17
2023-04-22T22:56:30.864Z,11.37
2023-04-22T22:58:59.784Z,11.57
2023-04-22T23:01:28.577Z,10.87
2023-04-22T23:03:57.907Z,11.13
2023-04-22T23:06:27.492Z,10.80
2023-04-22T23:08:57.255Z,11.17
2023-04-22T23:11:26.787Z,11.20
2023-04-22T23:13:58.065Z,11.07
2023-04-22T23:16:27.647Z,10.77
2023-04-22T23:18:58.328Z,11.10
2023-04-22T23:21:29.220Z,11.53
2023-04-22T23:24:01.653Z,10.83
2023-04-22T23:26:31.596Z,10.90
2023-04-22T23:29:02.615Z,11.30
2023-04-22T23:31:33.572Z,10.80
2023-04-22T23:34:04.919Z,11.60
2023-04-22T23:36:37.628Z,11.10
2023-04-22T23:49:22.201Z,12.73
2023-04-22T23:51:51.859Z,11.53
2023-04-22T23:57:54.433Z,11.00
